Time;durP1;ratioP1;P1;durP2;ratioP2;P2;SDS_P1;SDS_P2;PMS_P1;PMS_P2;Temp;Humidity;BMP_temperature;BMP_pressure;BME280_temperature;BME280_humidity;BME280_pressure;Samples;Min_cycle;Max_cycle;Signal;HPM_P1;HPM_P2
2022/04/28 00:01:50;;;;;;;2.97;1.42;;;;;;;;;;4980115;28;20030;-95
2022/04/28 00:04:16;;;;;;;3.85;1.42;;;;;;;;;;4980017;28;20026;-95
2022/04/28 00:06:42;;;;;;;3.15;1.50;;;;;;;;;;4979979;28;20537;-95
2022/04/28 00:09:08;;;;;;;3.05;1.35;;;;;;;;;;4966961;28;20053;-94
2022/04/28 00:11:35;;;;;;;3.33;1.38;;;;;;;;;;4960864;28;20085;-95
2022/04/28 00:14:01;;;;;;;2.22;1.30;;;;;;;;;;4960751;28;20037;-95
2022/04/28 00:16:28;;;;;;;4.57;1.67;;;;;;;;;;4960754;28;20119;-95
2022/04/28 00:18:54;;;;;;;2.53;1.38;;;;;;;;;;4960642;28;20475;-96
2022/04/28 00:21:20;;;;;;;2.63;1.50;;;;;;;;;;4960423;28;20026;-95
2022/04/28 00:23:47;;;;;;;3.88;1.70;;;;;;;;;;4960532;28;20023;-95
2022/04/28 00:26:15;;;;;;;3.55;1.40;;;;;;;;;;4960545;28;20027;-95
2022/04/28 00:28:41;;;;;;;1.75;1.40;;;;;;;;;;4960599;28;20495;-95
2022/04/28 00:31:07;;;;;;;5.30;1.50;;;;;;;;;;4960457;28;20026;-95
2022/04/28 00:33:33;;;;;;;2.22;1.30;;;;;;;;;;4960322;28;20026;-96
2022/04/28 00:35:59;;;;;;;2.17;1.30;;;;;;;;;;4960280;28;20059;-96
2022/04/28 00:38:26;;;;;;;2.25;1.20;;;;;;;;;;4960365;28;20130;-95
2022/04/28 00:40:52;;;;;;;2.88;1.75;;;;;;;;;;4960310;28;20088;-96
2022/04/28 00:43:26;;;;;;;4.07;2.30;;;;;;;;;;4960170;28;20534;-95
2022/04/28 00:45:52;;;;;;;3.78;2.70;;;;;;;;;;4960106;28;20019;-96
2022/04/28 00:51:17;;;;;;;7.38;3.05;;;;;;;;;;4945047;28;20031;-95
2022/04/28 00:53:49;;;;;;;4.15;3.00;;;;;;;;;;4959990;28;20574;-95
2022/04/28 00:56:16;;;;;;;5.55;3.38;;;;;;;;;;4960095;28;20026;-95
2022/04/28 00:58:42;;;;;;;4.72;2.38;;;;;;;;;;4959963;28;20031;-95
2022/04/28 01:01:09;;;;;;;4.25;2.70;;;;;;;;;;4960073;28;20356;-95
2022/04/28 01:03:35;;;;;;;2.45;1.73;;;;;;;;;;4959946;28;20121;-96
2022/04/28 01:06:02;;;;;;;3.33;1.50;;;;;;;;;;4959887;28;20023;-95
2022/04/28 01:08:28;;;;;;;2.97;1.33;;;;;;;;;;4959510;28;20089;-95
2022/04/28 01:10:56;;;;;;;1.50;1.20;;;;;;;;;;4959768;28;20027;-95
2022/04/28 01:13:22;;;;;;;2.85;1.33;;;;;;;;;;4959489;28;20030;-95
2022/04/28 01:15:49;;;;;;;3.03;1.60;;;;;;;;;;4959608;28;20030;-94
2022/04/28 01:18:16;;;;;;;3.55;1.35;;;;;;;;;;4959904;28;20034;-94
2022/04/28 01:20:42;;;;;;;3.97;1.20;;;;;;;;;;4959318;28;20034;-96
2022/04/28 01:23:09;;;;;;;2.00;1.73;;;;;;;;;;4959377;28;20089;-95
2022/04/28 01:25:35;;;;;;;3.20;1.35;;;;;;;;;;4959419;28;20063;-96
2022/04/28 01:28:01;;;;;;;1.75;1.00;;;;;;;;;;4959282;28;20062;-96
2022/04/28 01:30:28;;;;;;;1.60;0.95;;;;;;;;;;4959520;28;20022;-95
2022/04/28 01:32:56;;;;;;;1.30;1.10;;;;;;;;;;4959110;28;20117;-96
2022/04/28 01:35:22;;;;;;;2.83;1.35;;;;;;;;;;4959588;28;20034;-94
2022/04/28 01:37:49;;;;;;;1.20;0.90;;;;;;;;;;4959187;28;20546;-94
2022/04/28 01:40:16;;;;;;;1.63;1.00;;;;;;;;;;4959125;28;20031;-95
2022/04/28 01:42:43;;;;;;;1.73;1.10;;;;;;;;;;4959093;28;20037;-96
2022/04/28 01:45:10;;;;;;;1.70;1.15;;;;;;;;;;4959332;28;20133;-95
2022/04/28 01:47:37;;;;;;;4.28;1.08;;;;;;;;;;4959129;28;20037;-94
2022/04/28 01:50:04;;;;;;;2.38;0.98;;;;;;;;;;4958848;28;20030;-94
2022/04/28 01:55:15;;;;;;;1.10;0.98;;;;;;;;;;4976508;28;20029;-95
2022/04/28 01:57:42;;;;;;;1.45;0.95;;;;;;;;;;4958935;28;20081;-95
2022/04/28 02:00:08;;;;;;;2.30;1.20;;;;;;;;;;4959044;28;20046;-95
2022/04/28 02:02:35;;;;;;;2.50;1.20;;;;;;;;;;4958838;28;20061;-95
2022/04/28 02:05:05;;;;;;;1.83;0.90;;;;;;;;;;4958881;28;20034;-96
2022/04/28 02:07:31;;;;;;;1.80;0.90;;;;;;;;;;4958785;28;20081;-95
2022/04/28 02:09:58;;;;;;;1.63;1.08;;;;;;;;;;4978174;28;20030;-96
2022/04/28 02:12:25;;;;;;;2.72;1.00;;;;;;;;;;4977947;28;20030;-94
2022/04/28 02:14:52;;;;;;;1.58;0.98;;;;;;;;;;4978142;28;20030;-94
2022/04/28 02:17:18;;;;;;;1.85;1.00;;;;;;;;;;4978060;28;20490;-94
2022/04/28 02:19:45;;;;;;;2.05;1.00;;;;;;;;;;4977866;28;20451;-95
2022/04/28 02:22:11;;;;;;;2.95;0.90;;;;;;;;;;4977902;28;20042;-95
2022/04/28 02:24:37;;;;;;;1.77;1.00;;;;;;;;;;4977860;28;20023;-94
2022/04/28 02:27:04;;;;;;;1.45;0.90;;;;;;;;;;4977867;28;20026;-95
2022/04/28 02:29:30;;;;;;;2.65;1.50;;;;;;;;;;4977734;28;20026;-95
2022/04/28 02:31:56;;;;;;;4.75;2.03;;;;;;;;;;4977948;28;20019;-96
2022/04/28 02:34:22;;;;;;;2.65;1.83;;;;;;;;;;4977854;28;20037;-95
2022/04/28 02:36:48;;;;;;;5.53;2.90;;;;;;;;;;4977786;28;20031;-95
2022/04/28 02:39:14;;;;;;;3.40;2.45;;;;;;;;;;4977813;28;20030;-96
2022/04/28 02:41:41;;;;;;;4.75;2.75;;;;;;;;;;4978062;28;20554;-95
2022/04/28 02:44:07;;;;;;;4.43;2.72;;;;;;;;;;4977674;28;20023;-96
2022/04/28 02:46:34;;;;;;;4.75;2.53;;;;;;;;;;4977716;28;20116;-96
2022/04/28 02:49:00;;;;;;;5.18;2.10;;;;;;;;;;4977774;28;20479;-95
2022/04/28 02:51:26;;;;;;;4.10;1.92;;;;;;;;;;4977598;28;20029;-95
2022/04/28 02:53:53;;;;;;;4.78;1.77;;;;;;;;;;4977705;28;20026;-96
2022/04/28 02:56:19;;;;;;;4.25;1.15;;;;;;;;;;4977845;28;20206;-95
2022/04/28 02:58:46;;;;;;;3.03;1.10;;;;;;;;;;4977795;28;20026;-95
2022/04/28 03:01:12;;;;;;;3.72;1.13;;;;;;;;;;4978071;28;20466;-95
2022/04/28 03:03:38;;;;;;;1.98;1.20;;;;;;;;;;4977533;28;20074;-96
2022/04/28 03:11:33;;;;;;;3.67;1.13;;;;;;;;;;4995461;28;20037;-95
2022/04/28 03:13:59;;;;;;;2.08;1.10;;;;;;;;;;4977364;28;20066;-96
2022/04/28 03:16:26;;;;;;;1.52;0.90;;;;;;;;;;4977584;28;20393;-96
2022/04/28 03:18:52;;;;;;;1.17;0.98;;;;;;;;;;4977510;28;20022;-95
2022/04/28 03:21:19;;;;;;;2.88;1.30;;;;;;;;;;4977571;28;20443;-96
2022/04/28 03:23:45;;;;;;;3.08;1.33;;;;;;;;;;4977322;28;20026;-96
2022/04/28 03:26:11;;;;;;;2.88;1.33;;;;;;;;;;4978433;28;20033;-95
2022/04/28 03:28:38;;;;;;;1.42;1.10;;;;;;;;;;4978235;28;20045;-95
2022/04/28 03:31:04;;;;;;;2.40;1.55;;;;;;;;;;4977731;28;20085;-95
2022/04/28 03:33:31;;;;;;;4.35;1.45;;;;;;;;;;4980387;28;20026;-95
2022/04/28 03:35:57;;;;;;;3.20;1.38;;;;;;;;;;4980623;28;20089;-95
2022/04/28 03:38:23;;;;;;;3.55;1.75;;;;;;;;;;4980774;28;20030;-95
2022/04/28 03:40:49;;;;;;;1.33;1.10;;;;;;;;;;4980679;28;20036;-96
2022/04/28 03:43:17;;;;;;;2.55;1.42;;;;;;;;;;4980475;28;20027;-96
2022/04/28 03:45:43;;;;;;;3.83;1.58;;;;;;;;;;4980458;28;20113;-95
2022/04/28 03:48:10;;;;;;;2.47;1.10;;;;;;;;;;4980886;28;20395;-95
2022/04/28 03:50:36;;;;;;;1.98;1.23;;;;;;;;;;4980456;28;20383;-95
2022/04/28 03:53:03;;;;;;;2.33;1.20;;;;;;;;;;4980426;28;20049;-95
2022/04/28 03:55:29;;;;;;;1.67;1.15;;;;;;;;;;4980156;28;20038;-95
2022/04/28 03:57:55;;;;;;;3.95;1.20;;;;;;;;;;4980261;28;20027;-95
2022/04/28 04:00:22;;;;;;;2.40;1.38;;;;;;;;;;4980197;28;20438;-95
2022/04/28 04:02:48;;;;;;;1.05;0.90;;;;;;;;;;4980325;28;20121;-95
2022/04/28 04:05:15;;;;;;;1.55;1.00;;;;;;;;;;4980086;28;20018;-96
2022/04/28 04:07:42;;;;;;;3.25;1.10;;;;;;;;;;4979870;28;20033;-95
2022/04/28 04:10:09;;;;;;;1.38;1.00;;;;;;;;;;4980281;28;20038;-96
2022/04/28 04:12:36;;;;;;;1.65;1.05;;;;;;;;;;4979990;28;20497;-95
2022/04/28 04:15:02;;;;;;;2.88;1.30;;;;;;;;;;4979859;28;20492;-94
2022/04/28 04:17:29;;;;;;;1.30;1.10;;;;;;;;;;4980163;28;20125;-95
2022/04/28 04:19:55;;;;;;;1.50;1.20;;;;;;;;;;4981261;28;20039;-93
2022/04/28 04:22:21;;;;;;;1.48;1.00;;;;;;;;;;4980546;28;20030;-95
2022/04/28 04:24:47;;;;;;;2.63;1.30;;;;;;;;;;4980108;28;20026;-94
2022/04/28 04:27:15;;;;;;;2.00;1.00;;;;;;;;;;4980189;28;20026;-94
2022/04/28 04:29:41;;;;;;;1.92;1.20;;;;;;;;;;4980190;28;20022;-94
2022/04/28 04:32:25;;;;;;;4.05;1.23;;;;;;;;;;4980374;28;20094;-94
2022/04/28 04:34:52;;;;;;;4.00;1.45;;;;;;;;;;4981775;28;20019;-96
2022/04/28 04:37:19;;;;;;;3.45;1.20;;;;;;;;;;4981925;28;20402;-95
2022/04/28 04:39:45;;;;;;;3.85;1.20;;;;;;;;;;4979396;28;20092;-95
2022/04/28 04:42:11;;;;;;;1.90;1.15;;;;;;;;;;4979189;28;20023;-94
2022/04/28 04:44:37;;;;;;;2.00;1.27;;;;;;;;;;4979179;28;20108;-95
2022/04/28 04:47:04;;;;;;;4.38;1.20;;;;;;;;;;4979293;28;20022;-95
2022/04/28 04:49:30;;;;;;;2.10;1.40;;;;;;;;;;4979311;28;20026;-95
2022/04/28 04:51:56;;;;;;;2.03;1.08;;;;;;;;;;4979337;28;20022;-94
2022/04/28 04:54:23;;;;;;;3.10;1.30;;;;;;;;;;4979213;28;20030;-94
2022/04/28 04:56:49;;;;;;;3.17;2.00;;;;;;;;;;4979282;28;20375;-94
2022/04/28 04:59:15;;;;;;;3.28;2.15;;;;;;;;;;4979052;28;20395;-94
2022/04/28 05:01:42;;;;;;;7.38;2.85;;;;;;;;;;4979217;28;20034;-94
2022/04/28 05:04:08;;;;;;;5.78;3.42;;;;;;;;;;4978959;28;20026;-94
2022/04/28 05:06:34;;;;;;;5.65;3.05;;;;;;;;;;4979082;28;20478;-95
2022/04/28 05:09:00;;;;;;;6.60;3.28;;;;;;;;;;4966987;28;20048;-94
2022/04/28 05:11:26;;;;;;;9.68;3.85;;;;;;;;;;4959520;28;20081;-95
2022/04/28 05:13:52;;;;;;;7.45;4.03;;;;;;;;;;4959619;28;20026;-95
2022/04/28 05:16:18;;;;;;;6.10;3.55;;;;;;;;;;4959588;28;20403;-95
2022/04/28 05:18:45;;;;;;;8.57;3.25;;;;;;;;;;4959781;28;20476;-95
2022/04/28 05:21:11;;;;;;;5.85;3.38;;;;;;;;;;4959422;28;20089;-94
2022/04/28 05:23:37;;;;;;;7.28;3.40;;;;;;;;;;4959508;28;20122;-95
2022/04/28 05:26:03;;;;;;;8.77;4.22;;;;;;;;;;4959458;28;20099;-95
2022/04/28 05:28:29;;;;;;;7.97;5.00;;;;;;;;;;4959393;28;20023;-94
2022/04/28 05:30:55;;;;;;;9.57;4.22;;;;;;;;;;4959289;28;20019;-95
2022/04/28 05:33:22;;;;;;;8.55;5.25;;;;;;;;;;4959166;28;20037;-95
2022/04/28 05:35:48;;;;;;;19.80;6.90;;;;;;;;;;4959076;28;20064;-94
2022/04/28 05:38:15;;;;;;;9.07;4.95;;;;;;;;;;4959167;28;20038;-94
2022/04/28 05:40:42;;;;;;;7.20;4.68;;;;;;;;;;4959425;28;20086;-94
2022/04/28 05:45:54;;;;;;;12.40;8.10;;;;;;;;;;4976819;28;20571;-94
2022/04/28 05:48:20;;;;;;;12.50;7.57;;;;;;;;;;4958837;28;20023;-94
2022/04/28 05:50:47;;;;;;;9.38;4.05;;;;;;;;;;4959064;28;20383;-94
2022/04/28 05:53:13;;;;;;;5.30;2.40;;;;;;;;;;4958900;28;20019;-94
2022/04/28 05:55:40;;;;;;;4.63;2.42;;;;;;;;;;4958098;28;20027;-94
2022/04/28 05:58:06;;;;;;;6.57;3.00;;;;;;;;;;4958831;28;20114;-94
2022/04/28 06:00:33;;;;;;;6.75;2.22;;;;;;;;;;4958857;28;20529;-94
2022/04/28 06:03:00;;;;;;;5.93;2.20;;;;;;;;;;4958686;28;20035;-94
2022/04/28 06:05:26;;;;;;;5.22;2.67;;;;;;;;;;4958861;28;20049;-94
2022/04/28 06:07:52;;;;;;;5.35;2.50;;;;;;;;;;4961511;28;20042;-94
2022/04/28 06:10:19;;;;;;;2.97;1.80;;;;;;;;;;4978236;28;20121;-94
2022/04/28 06:12:45;;;;;;;3.78;2.67;;;;;;;;;;4977987;28;20117;-94
2022/04/28 06:15:13;;;;;;;4.60;2.80;;;;;;;;;;4978019;28;20026;-94
2022/04/28 06:17:40;;;;;;;6.85;3.05;;;;;;;;;;4977915;28;20395;-94
2022/04/28 06:20:06;;;;;;;5.55;3.20;;;;;;;;;;4978085;28;20463;-94
2022/04/28 06:22:32;;;;;;;6.20;3.03;;;;;;;;;;4977731;28;20125;-94
2022/04/28 06:25:01;;;;;;;7.72;3.15;;;;;;;;;;4978007;28;20032;-94
2022/04/28 06:27:28;;;;;;;6.80;3.28;;;;;;;;;;4977811;28;20062;-94
2022/04/28 06:29:55;;;;;;;5.65;3.15;;;;;;;;;;4977777;28;20077;-94
2022/04/28 06:32:21;;;;;;;6.60;3.80;;;;;;;;;;4977909;28;20394;-94
2022/04/28 06:34:47;;;;;;;7.57;3.72;;;;;;;;;;4977631;28;20030;-94
2022/04/28 06:37:16;;;;;;;7.15;3.40;;;;;;;;;;4977753;28;20101;-94
2022/04/28 06:39:43;;;;;;;6.93;3.67;;;;;;;;;;4977730;28;20069;-94
2022/04/28 06:42:09;;;;;;;10.70;4.13;;;;;;;;;;4978337;28;20041;-94
2022/04/28 06:44:36;;;;;;;7.22;4.32;;;;;;;;;;4977596;28;20095;-94
2022/04/28 06:47:05;;;;;;;9.07;3.90;;;;;;;;;;4977698;28;20393;-94
2022/04/28 06:49:32;;;;;;;6.60;4.25;;;;;;;;;;4977611;28;20031;-94
2022/04/28 06:51:58;;;;;;;5.03;3.42;;;;;;;;;;4977567;28;20019;-94
2022/04/28 06:54:24;;;;;;;8.65;3.72;;;;;;;;;;4977604;28;20390;-94
2022/04/28 06:56:51;;;;;;;4.90;2.70;;;;;;;;;;4977540;28;20031;-94
2022/04/28 06:59:17;;;;;;;6.55;3.08;;;;;;;;;;4977498;28;20033;-94
2022/04/28 07:01:43;;;;;;;6.05;2.80;;;;;;;;;;4977433;28;20065;-93
2022/04/28 07:04:09;;;;;;;10.35;2.80;;;;;;;;;;4977250;28;20048;-94
2022/04/28 07:06:35;;;;;;;5.93;3.85;;;;;;;;;;4979264;28;20029;-94
2022/04/28 07:09:02;;;;;;;5.60;2.97;;;;;;;;;;4968924;28;20054;-94
2022/04/28 07:11:28;;;;;;;5.65;2.70;;;;;;;;;;4961781;28;20110;-95
2022/04/28 07:13:54;;;;;;;6.22;3.10;;;;;;;;;;4961792;28;20030;-94
2022/04/28 07:16:20;;;;;;;5.82;3.15;;;;;;;;;;4961596;28;20055;-94
2022/04/28 07:18:46;;;;;;;4.10;2.90;;;;;;;;;;4962370;28;20518;-94
2022/04/28 07:21:12;;;;;;;7.95;3.28;;;;;;;;;;4961858;28;20109;-93
2022/04/28 07:23:39;;;;;;;6.28;2.83;;;;;;;;;;4961775;28;20031;-94
2022/04/28 07:26:05;;;;;;;4.78;2.90;;;;;;;;;;4961508;28;20053;-94
2022/04/28 07:28:31;;;;;;;5.47;2.95;;;;;;;;;;4961338;28;20121;-95
2022/04/28 07:30:57;;;;;;;6.53;3.45;;;;;;;;;;4961246;28;20039;-95
2022/04/28 07:33:23;;;;;;;7.18;3.30;;;;;;;;;;4961304;28;20029;-94
2022/04/28 07:35:49;;;;;;;6.60;3.47;;;;;;;;;;4961738;28;20031;-93
2022/04/28 07:38:16;;;;;;;14.82;3.83;;;;;;;;;;4961229;28;20088;-94
2022/04/28 07:40:42;;;;;;;11.43;4.13;;;;;;;;;;4961182;28;20030;-94
2022/04/28 07:43:08;;;;;;;16.60;5.05;;;;;;;;;;4961042;28;20035;-94
2022/04/28 07:45:34;;;;;;;16.17;4.85;;;;;;;;;;4961121;28;20073;-94
2022/04/28 07:48:00;;;;;;;16.10;4.85;;;;;;;;;;4960948;28;20027;-95
2022/04/28 07:50:29;;;;;;;7.25;4.43;;;;;;;;;;4961046;28;20019;-94
2022/04/28 07:52:55;;;;;;;12.77;5.43;;;;;;;;;;4961686;28;20126;-93
2022/04/28 07:55:21;;;;;;;9.13;4.07;;;;;;;;;;4963686;28;20027;-93
2022/04/28 07:57:48;;;;;;;5.45;4.40;;;;;;;;;;4963539;28;20105;-93
2022/04/28 08:00:14;;;;;;;9.43;5.82;;;;;;;;;;4962392;28;20146;-93
2022/04/28 08:02:40;;;;;;;7.47;4.95;;;;;;;;;;4962779;28;20054;-93
2022/04/28 08:05:07;;;;;;;6.65;4.40;;;;;;;;;;4962402;28;20029;-93
2022/04/28 08:07:33;;;;;;;6.35;4.40;;;;;;;;;;4962964;28;20023;-93
2022/04/28 08:10:00;;;;;;;5.55;3.65;;;;;;;;;;4981483;28;20390;-93
2022/04/28 08:12:26;;;;;;;5.43;3.80;;;;;;;;;;4981511;28;20033;-93
2022/04/28 08:14:52;;;;;;;6.32;4.32;;;;;;;;;;4982151;28;20029;-93
2022/04/28 08:17:18;;;;;;;6.10;3.20;;;;;;;;;;4980156;28;20029;-93
2022/04/28 08:19:45;;;;;;;5.35;3.67;;;;;;;;;;4979902;28;20033;-93
2022/04/28 08:22:11;;;;;;;3.83;3.20;;;;;;;;;;4979803;28;20481;-93
2022/04/28 08:24:37;;;;;;;8.32;3.13;;;;;;;;;;4979573;28;20478;-92
2022/04/28 08:27:04;;;;;;;5.55;2.90;;;;;;;;;;4979978;28;20057;-93
2022/04/28 08:29:30;;;;;;;4.55;2.70;;;;;;;;;;4979582;28;20027;-93
2022/04/28 08:31:56;;;;;;;7.03;3.20;;;;;;;;;;4979659;28;20026;-93
2022/04/28 08:34:23;;;;;;;4.20;2.80;;;;;;;;;;4979439;28;20540;-93
2022/04/28 08:36:50;;;;;;;5.45;2.85;;;;;;;;;;4979374;28;20033;-93
2022/04/28 08:39:16;;;;;;;4.45;2.60;;;;;;;;;;4979542;28;20141;-94
2022/04/28 08:41:49;;;;;;;6.53;3.08;;;;;;;;;;4979266;28;20030;-93
2022/04/28 08:44:20;;;;;;;4.28;2.50;;;;;;;;;;4979311;28;20034;-93
2022/04/28 08:46:53;;;;;;;4.05;3.05;;;;;;;;;;4980140;28;20022;-95
2022/04/28 08:49:22;;;;;;;4.97;3.47;;;;;;;;;;4981043;28;20026;-94
2022/04/28 08:51:51;;;;;;;7.22;3.90;;;;;;;;;;4979296;28;20033;-95
2022/04/28 08:54:17;;;;;;;4.82;3.30;;;;;;;;;;4979213;28;20022;-94
2022/04/28 08:56:43;;;;;;;5.35;3.92;;;;;;;;;;4979023;28;20137;-94
2022/04/28 08:59:09;;;;;;;7.93;4.38;;;;;;;;;;4979065;28;20035;-94
2022/04/28 09:01:36;;;;;;;7.93;4.28;;;;;;;;;;4978995;28;20069;-93
2022/04/28 09:04:04;;;;;;;5.60;4.50;;;;;;;;;;4978936;28;20038;-93
2022/04/28 09:06:34;;;;;;;10.25;5.28;;;;;;;;;;4978856;28;20387;-93
2022/04/28 09:09:01;;;;;;;7.97;4.53;;;;;;;;;;4979006;28;20403;-93
2022/04/28 09:11:28;;;;;;;6.68;4.30;;;;;;;;;;4978699;28;20018;-93
2022/04/28 09:14:14;;;;;;;6.90;4.50;;;;;;;;;;4996152;28;20022;-93
2022/04/28 09:16:47;;;;;;;7.57;5.50;;;;;;;;;;4978659;28;20475;-93
2022/04/28 09:19:14;;;;;;;10.32;5.65;;;;;;;;;;4978723;28;20418;-93
2022/04/28 09:21:41;;;;;;;6.75;4.45;;;;;;;;;;4978709;28;20117;-93
2022/04/28 09:24:07;;;;;;;7.97;4.53;;;;;;;;;;4978595;28;20027;-93
2022/04/28 09:26:34;;;;;;;5.70;4.05;;;;;;;;;;4978490;28;20029;-93
2022/04/28 09:29:04;;;;;;;5.63;3.72;;;;;;;;;;4978423;28;20027;-94
2022/04/28 09:31:33;;;;;;;5.93;3.80;;;;;;;;;;4978552;28;20463;-93
2022/04/28 09:34:12;;;;;;;5.00;3.75;;;;;;;;;;4978454;28;20030;-93
2022/04/28 09:36:39;;;;;;;5.05;3.85;;;;;;;;;;4995647;28;20019;-94
2022/04/28 09:39:06;;;;;;;6.68;4.15;;;;;;;;;;4978268;28;20022;-95
2022/04/28 09:44:19;;;;;;;9.02;4.30;;;;;;;;;;4995945;28;20057;-94
2022/04/28 09:46:46;;;;;;;7.25;4.50;;;;;;;;;;4978374;28;20391;-92
2022/04/28 09:49:13;;;;;;;11.25;3.95;;;;;;;;;;4978167;28;20479;-93
2022/04/28 09:51:39;;;;;;;7.40;4.88;;;;;;;;;;4978067;28;20104;-93
2022/04/28 09:54:10;;;;;;;8.65;3.55;;;;;;;;;;4978141;28;20033;-93
2022/04/28 09:56:36;;;;;;;6.82;3.50;;;;;;;;;;4981613;28;20026;-93
2022/04/28 09:59:05;;;;;;;6.97;3.97;;;;;;;;;;4978530;28;20030;-93
2022/04/28 10:01:31;;;;;;;7.32;4.57;;;;;;;;;;4977926;28;20183;-94
2022/04/28 10:03:58;;;;;;;9.15;6.22;;;;;;;;;;4978131;28;20026;-93
2022/04/28 10:06:25;;;;;;;9.32;5.65;;;;;;;;;;4977747;28;20112;-94
2022/04/28 10:08:56;;;;;;;6.90;5.20;;;;;;;;;;4977660;28;20073;-93
2022/04/28 10:11:23;;;;;;;6.85;4.28;;;;;;;;;;4977895;28;20044;-93
2022/04/28 10:13:50;;;;;;;4.72;3.95;;;;;;;;;;4978009;28;20121;-94
2022/04/28 10:16:17;;;;;;;6.68;3.55;;;;;;;;;;4977999;28;20505;-94
2022/04/28 10:18:51;;;;;;;6.82;2.50;;;;;;;;;;4977872;28;20127;-94
2022/04/28 10:21:20;;;;;;;9.30;3.15;;;;;;;;;;4977719;28;20030;-93
2022/04/28 10:32:24;;;;;;;2.60;2.00;;;;;;;;;;4995148;28;20552;-93
2022/04/28 10:35:08;;;;;;;4.25;2.85;;;;;;;;;;4977615;28;20023;-93
2022/04/28 10:37:36;;;;;;;5.43;2.78;;;;;;;;;;4977528;28;20049;-93
2022/04/28 10:40:03;;;;;;;3.47;2.35;;;;;;;;;;4977778;28;20019;-93
2022/04/28 10:42:32;;;;;;;6.75;3.05;;;;;;;;;;4980945;28;20446;-94
2022/04/28 10:45:00;;;;;;;3.35;2.30;;;;;;;;;;4981577;28;20038;-93
2022/04/28 10:47:33;;;;;;;5.07;2.38;;;;;;;;;;4981550;28;20049;-93
2022/04/28 10:50:00;;;;;;;4.70;2.53;;;;;;;;;;4981367;28;20026;-93
2022/04/28 10:52:26;;;;;;;5.00;2.30;;;;;;;;;;4998669;28;20026;-93
2022/04/28 10:55:02;;;;;;;3.75;2.30;;;;;;;;;;4981360;28;20050;-94
2022/04/28 10:57:32;;;;;;;5.82;2.55;;;;;;;;;;4981133;28;20026;-94
2022/04/28 11:00:00;;;;;;;3.83;2.47;;;;;;;;;;4981252;28;20030;-94
2022/04/28 11:02:26;;;;;;;3.88;2.20;;;;;;;;;;4981135;28;20030;-93
2022/04/28 11:04:56;;;;;;;5.38;2.67;;;;;;;;;;4981182;28;20034;-94
2022/04/28 11:07:28;;;;;;;5.07;2.80;;;;;;;;;;4981027;28;20026;-93
2022/04/28 11:09:55;;;;;;;5.55;2.40;;;;;;;;;;4981090;28;20070;-94
2022/04/28 11:12:22;;;;;;;6.30;3.05;;;;;;;;;;4981062;28;20038;-94
2022/04/28 11:14:49;;;;;;;6.25;2.92;;;;;;;;;;4980795;28;20026;-93
2022/04/28 11:17:16;;;;;;;3.70;2.67;;;;;;;;;;4980973;28;20026;-94
2022/04/28 11:19:43;;;;;;;6.00;3.17;;;;;;;;;;4980846;28;20386;-93
2022/04/28 11:22:11;;;;;;;4.72;2.90;;;;;;;;;;4980823;28;20031;-94
2022/04/28 11:24:47;;;;;;;4.20;2.70;;;;;;;;;;4980662;28;20026;-94
2022/04/28 11:27:15;;;;;;;5.80;2.40;;;;;;;;;;4981144;28;20015;-93
2022/04/28 11:29:42;;;;;;;5.53;2.30;;;;;;;;;;4980693;28;20022;-93
2022/04/28 11:32:11;;;;;;;5.55;2.70;;;;;;;;;;4980547;28;20019;-93
2022/04/28 11:34:38;;;;;;;7.57;3.70;;;;;;;;;;4980666;28;20026;-93
2022/04/28 11:37:17;;;;;;;4.53;2.90;;;;;;;;;;4980688;28;20110;-93
2022/04/28 11:39:44;;;;;;;3.75;2.70;;;;;;;;;;4980489;28;20023;-93
2022/04/28 11:42:12;;;;;;;3.63;2.70;;;;;;;;;;4980445;28;20509;-93
2022/04/28 11:45:11;;;;;;;4.63;3.13;;;;;;;;;;4980194;28;20029;-93
2022/04/28 11:47:45;;;;;;;4.80;3.42;;;;;;;;;;4928540;28;20038;-94
2022/04/28 11:50:19;;;;;;;6.53;3.17;;;;;;;;;;4980444;28;20029;-93
2022/04/28 11:52:45;;;;;;;4.60;3.75;;;;;;;;;;4979230;28;20030;-94
2022/04/28 11:55:12;;;;;;;4.50;3.08;;;;;;;;;;4980340;28;20022;-93
2022/04/28 11:57:41;;;;;;;5.10;2.72;;;;;;;;;;4980163;28;20527;-93
2022/04/28 12:00:08;;;;;;;5.13;3.08;;;;;;;;;;4980264;28;20054;-93
2022/04/28 12:02:37;;;;;;;5.22;2.83;;;;;;;;;;4980094;28;20019;-93
2022/04/28 12:05:06;;;;;;;6.13;3.17;;;;;;;;;;4980051;28;20093;-93
2022/04/28 12:07:34;;;;;;;5.05;3.03;;;;;;;;;;4980076;28;20483;-93
2022/04/28 12:15:30;;;;;;;2.85;1.98;;;;;;;;;;4997436;28;20050;-93
2022/04/28 12:20:53;;;;;;;2.58;1.98;;;;;;;;;;4997331;28;20029;-94
2022/04/28 12:23:29;;;;;;;3.10;2.47;;;;;;;;;;4979579;28;20061;-93
2022/04/28 12:26:02;;;;;;;3.40;2.25;;;;;;;;;;4979919;28;20077;-94
2022/04/28 12:28:32;;;;;;;4.53;2.40;;;;;;;;;;4979633;28;20048;-93
2022/04/28 12:30:59;;;;;;;3.88;2.40;;;;;;;;;;4979669;28;20077;-93
2022/04/28 12:33:35;;;;;;;2.97;2.17;;;;;;;;;;4979624;28;20022;-93
2022/04/28 12:36:02;;;;;;;3.85;2.55;;;;;;;;;;4979695;28;20046;-93
2022/04/28 12:38:30;;;;;;;5.00;2.22;;;;;;;;;;4979451;28;20430;-94
2022/04/28 12:40:56;;;;;;;3.63;2.08;;;;;;;;;;4979369;28;20111;-93
2022/04/28 12:43:39;;;;;;;3.63;2.60;;;;;;;;;;4979356;28;20121;-94
2022/04/28 12:46:06;;;;;;;3.25;2.50;;;;;;;;;;4979316;28;20033;-93
2022/04/28 12:48:41;;;;;;;3.92;2.30;;;;;;;;;;4979286;28;20108;-92
2022/04/28 12:51:18;;;;;;;3.85;1.92;;;;;;;;;;4979173;28;20022;-93
2022/04/28 12:53:47;;;;;;;3.10;2.30;;;;;;;;;;4979283;28;20041;-93
2022/04/28 12:56:14;;;;;;;2.58;2.10;;;;;;;;;;4979135;28;20081;-94
2022/04/28 12:58:45;;;;;;;3.22;1.90;;;;;;;;;;4996132;28;20037;-94
2022/04/28 13:01:14;;;;;;;5.50;2.57;;;;;;;;;;4978990;28;20133;-94
2022/04/28 13:03:41;;;;;;;6.78;2.60;;;;;;;;;;4978556;28;20030;-94
2022/04/28 13:06:08;;;;;;;4.80;2.20;;;;;;;;;;4979067;28;20029;-93
2022/04/28 13:08:35;;;;;;;4.88;1.90;;;;;;;;;;4978547;28;20522;-94
2022/04/28 13:11:01;;;;;;;3.47;2.28;;;;;;;;;;4979085;28;20018;-94
2022/04/28 13:13:28;;;;;;;2.97;2.28;;;;;;;;;;4979009;28;20109;-94
2022/04/28 13:15:54;;;;;;;4.05;2.33;;;;;;;;;;4979005;28;20558;-94
2022/04/28 13:18:20;;;;;;;4.45;2.30;;;;;;;;;;4978636;28;20030;-94
2022/04/28 13:20:47;;;;;;;3.80;2.47;;;;;;;;;;4978824;28;20057;-94
2022/04/28 13:23:13;;;;;;;2.55;2.03;;;;;;;;;;4978532;28;20030;-94
2022/04/28 13:25:39;;;;;;;2.72;2.28;;;;;;;;;;4978476;28;20027;-94
2022/04/28 13:28:05;;;;;;;2.90;2.22;;;;;;;;;;4978806;28;20061;-94
2022/04/28 13:30:31;;;;;;;2.97;2.20;;;;;;;;;;4978463;28;20022;-94
2022/04/28 13:32:58;;;;;;;3.80;2.53;;;;;;;;;;4978596;28;20029;-94
2022/04/28 13:35:25;;;;;;;3.63;2.40;;;;;;;;;;4978613;28;20057;-94
2022/04/28 13:37:51;;;;;;;4.22;2.50;;;;;;;;;;4978512;28;20030;-94
2022/04/28 13:40:17;;;;;;;2.90;2.20;;;;;;;;;;4978410;28;20034;-94
2022/04/28 13:42:43;;;;;;;6.82;2.75;;;;;;;;;;4978401;28;20030;-94
2022/04/28 13:45:10;;;;;;;4.38;2.22;;;;;;;;;;4978548;28;20037;-94
2022/04/28 13:47:36;;;;;;;5.57;2.63;;;;;;;;;;4978275;28;20073;-94
2022/04/28 13:50:02;;;;;;;5.82;2.50;;;;;;;;;;4978077;28;20073;-94
2022/04/28 13:52:28;;;;;;;2.72;2.20;;;;;;;;;;4978294;28;20025;-95
2022/04/28 13:54:54;;;;;;;3.65;1.90;;;;;;;;;;4978044;28;20113;-94
2022/04/28 13:57:20;;;;;;;4.43;2.25;;;;;;;;;;4977894;28;20072;-94
2022/04/28 13:59:46;;;;;;;6.32;2.60;;;;;;;;;;4995403;28;20026;-95
2022/04/28 14:02:13;;;;;;;6.53;2.20;;;;;;;;;;4978112;28;20057;-94
2022/04/28 14:04:39;;;;;;;5.30;2.85;;;;;;;;;;4977953;28;20398;-94
2022/04/28 14:07:05;;;;;;;2.95;2.40;;;;;;;;;;4977919;28;20027;-94
2022/04/28 14:09:32;;;;;;;5.60;2.20;;;;;;;;;;4977602;28;20053;-95
2022/04/28 14:11:58;;;;;;;2.40;1.85;;;;;;;;;;4977908;28;20490;-95
2022/04/28 14:14:24;;;;;;;4.90;2.03;;;;;;;;;;4977882;28;20072;-94
2022/04/28 14:16:51;;;;;;;5.32;2.40;;;;;;;;;;4977286;28;20398;-93
2022/04/28 14:19:17;;;;;;;4.55;2.10;;;;;;;;;;4978089;28;20185;-94
2022/04/28 14:21:43;;;;;;;3.50;2.22;;;;;;;;;;4977696;28;20026;-93
2022/04/28 14:24:09;;;;;;;5.57;2.30;;;;;;;;;;4977682;28;20030;-93
2022/04/28 14:26:36;;;;;;;3.20;2.20;;;;;;;;;;4977702;28;20026;-94
2022/04/28 14:29:03;;;;;;;3.30;2.03;;;;;;;;;;4977796;28;20470;-94
2022/04/28 14:31:31;;;;;;;3.75;1.90;;;;;;;;;;4977806;28;20160;-94
2022/04/28 14:33:57;;;;;;;3.35;2.00;;;;;;;;;;4977729;28;20026;-94
2022/04/28 14:36:23;;;;;;;4.45;2.20;;;;;;;;;;4977608;28;20134;-94
2022/04/28 14:38:49;;;;;;;12.13;2.30;;;;;;;;;;4977772;28;20461;-94
2022/04/28 14:41:16;;;;;;;3.53;2.00;;;;;;;;;;4977679;28;20057;-94
2022/04/28 14:43:42;;;;;;;3.30;1.90;;;;;;;;;;4977565;28;20027;-94
2022/04/28 14:46:08;;;;;;;6.05;2.20;;;;;;;;;;4977488;28;20166;-94
2022/04/28 14:52:19;;;;;;;6.00;2.13;;;;;;;;;;4977578;28;20026;-94
2022/04/28 14:54:05;;;;;;;4.03;1.90;;;;;;;;;;4994918;28;20097;-94
2022/04/28 14:56:31;;;;;;;4.63;2.10;;;;;;;;;;4977449;28;20027;-94
2022/04/28 14:58:58;;;;;;;4.00;2.15;;;;;;;;;;4977479;28;20026;-94
2022/04/28 15:01:24;;;;;;;5.57;2.33;;;;;;;;;;4977564;28;20027;-94
2022/04/28 15:03:50;;;;;;;6.57;1.85;;;;;;;;;;4977315;28;20121;-94
2022/04/28 15:06:16;;;;;;;3.47;1.95;;;;;;;;;;4977453;28;20026;-94
2022/04/28 15:08:42;;;;;;;6.45;2.25;;;;;;;;;;4977481;28;20092;-94
2022/04/28 15:11:09;;;;;;;3.03;1.95;;;;;;;;;;4977306;28;20185;-94
2022/04/28 15:13:35;;;;;;;4.20;1.70;;;;;;;;;;4977224;28;20491;-94
2022/04/28 15:16:02;;;;;;;2.30;1.52;;;;;;;;;;4977346;28;20037;-94
2022/04/28 15:18:28;;;;;;;2.97;1.67;;;;;;;;;;4977149;28;20478;-95
2022/04/28 15:20:54;;;;;;;2.92;1.50;;;;;;;;;;4977402;28;20045;-94